Atka, Alaska
Current Conditions -  °F | °C
As of 10:16 AM on Wednesday 28 Jan 2015 (Local Time) from PAAK Reporting Station
Overcast Overcast  
Wind Chill: 21°   Ceiling: 1800
Heat Index: 34°   Visibility: 2.5mi
Dew Point: 27°   Wind: 24mph
Humidity: 75%   Direction: 350°N
Pressure: 30.08"   Gusts: 32mph
Location:  52.19°N, 174.2°W
Report Text: PAAK 282016Z 35021G28KT 2 1/2SM OVC018 01/M03 A3008 RMK AO1
Loading
Personal Weather Stations






























Interactive Weather Map New forecast layout! Learn more

10-Day Weather Forecast

Advertisements
Track Severe Weather on mobile